sensor_id;sensor_type;location;lat;lon;timestamp;P1;durP1;ratioP1;P2;durP2;ratioP2
3443;SDS011;1736;52.068;6.968;2022-12-16T00:00:29;41.37;;;19.00;;
3443;SDS011;1736;52.068;6.968;2022-12-16T00:02:57;44.90;;;19.73;;
3443;SDS011;1736;52.068;6.968;2022-12-16T00:05:26;40.53;;;20.20;;
3443;SDS011;1736;52.068;6.968;2022-12-16T00:07:53;42.20;;;21.43;;
3443;SDS011;1736;52.068;6.968;2022-12-16T00:10:20;42.50;;;21.27;;
3443;SDS011;1736;52.068;6.968;2022-12-16T00:12:47;43.53;;;20.53;;
3443;SDS011;1736;52.068;6.968;2022-12-16T00:15:13;41.80;;;20.53;;
3443;SDS011;1736;52.068;6.968;2022-12-16T00:17:40;46.77;;;20.87;;
3443;SDS011;1736;52.068;6.968;2022-12-16T00:20:07;45.80;;;20.70;;
3443;SDS011;1736;52.068;6.968;2022-12-16T00:22:36;41.53;;;20.73;;
3443;SDS011;1736;52.068;6.968;2022-12-16T00:25:02;43.83;;;21.47;;
3443;SDS011;1736;52.068;6.968;2022-12-16T00:27:29;43.00;;;19.80;;
3443;SDS011;1736;52.068;6.968;2022-12-16T00:29:56;42.27;;;20.57;;
3443;SDS011;1736;52.068;6.968;2022-12-16T00:32:23;36.60;;;18.03;;
3443;SDS011;1736;52.068;6.968;2022-12-16T00:34:50;40.60;;;19.20;;
3443;SDS011;1736;52.068;6.968;2022-12-16T00:37:17;49.00;;;20.93;;
3443;SDS011;1736;52.068;6.968;2022-12-16T00:39:45;40.00;;;19.87;;
3443;SDS011;1736;52.068;6.968;2022-12-16T00:42:11;49.67;;;21.50;;
3443;SDS011;1736;52.068;6.968;2022-12-16T00:44:38;43.00;;;20.57;;
3443;SDS011;1736;52.068;6.968;2022-12-16T00:47:04;49.57;;;19.97;;
3443;SDS011;1736;52.068;6.968;2022-12-16T00:49:31;38.43;;;18.97;;
3443;SDS011;1736;52.068;6.968;2022-12-16T00:51:57;43.20;;;20.07;;
3443;SDS011;1736;52.068;6.968;2022-12-16T00:54:24;39.63;;;20.80;;
3443;SDS011;1736;52.068;6.968;2022-12-16T00:56:52;39.80;;;20.30;;
3443;SDS011;1736;52.068;6.968;2022-12-16T00:59:19;42.20;;;21.13;;
3443;SDS011;1736;52.068;6.968;2022-12-16T01:01:46;39.27;;;19.20;;
3443;SDS011;1736;52.068;6.968;2022-12-16T01:04:12;41.00;;;21.33;;
3443;SDS011;1736;52.068;6.968;2022-12-16T01:06:39;43.50;;;21.63;;
3443;SDS011;1736;52.068;6.968;2022-12-16T01:09:05;36.50;;;18.70;;
3443;SDS011;1736;52.068;6.968;2022-12-16T01:11:32;46.47;;;20.37;;
3443;SDS011;1736;52.068;6.968;2022-12-16T01:14:00;40.00;;;18.10;;
3443;SDS011;1736;52.068;6.968;2022-12-16T01:16:27;37.03;;;19.50;;
3443;SDS011;1736;52.068;6.968;2022-12-16T01:18:55;43.00;;;20.30;;
3443;SDS011;1736;52.068;6.968;2022-12-16T01:21:21;40.37;;;19.50;;
3443;SDS011;1736;52.068;6.968;2022-12-16T01:23:48;40.93;;;19.27;;
3443;SDS011;1736;52.068;6.968;2022-12-16T01:26:15;37.30;;;19.37;;
3443;SDS011;1736;52.068;6.968;2022-12-16T01:28:46;43.97;;;19.90;;
3443;SDS011;1736;52.068;6.968;2022-12-16T01:31:15;42.23;;;20.80;;
3443;SDS011;1736;52.068;6.968;2022-12-16T01:33:43;38.17;;;19.17;;
3443;SDS011;1736;52.068;6.968;2022-12-16T01:36:09;40.73;;;20.10;;
3443;SDS011;1736;52.068;6.968;2022-12-16T01:38:36;39.43;;;19.63;;
3443;SDS011;1736;52.068;6.968;2022-12-16T01:41:03;39.80;;;19.97;;
3443;SDS011;1736;52.068;6.968;2022-12-16T01:43:31;38.20;;;19.40;;
3443;SDS011;1736;52.068;6.968;2022-12-16T01:45:59;40.03;;;19.47;;
3443;SDS011;1736;52.068;6.968;2022-12-16T01:48:33;41.90;;;19.10;;
3443;SDS011;1736;52.068;6.968;2022-12-16T01:51:05;37.87;;;18.77;;
3443;SDS011;1736;52.068;6.968;2022-12-16T01:53:34;36.40;;;18.17;;
3443;SDS011;1736;52.068;6.968;2022-12-16T01:56:04;38.73;;;19.13;;
3443;SDS011;1736;52.068;6.968;2022-12-16T01:58:32;38.60;;;20.13;;
3443;SDS011;1736;52.068;6.968;2022-12-16T02:01:02;36.43;;;18.40;;
3443;SDS011;1736;52.068;6.968;2022-12-16T02:03:29;37.87;;;18.73;;
3443;SDS011;1736;52.068;6.968;2022-12-16T02:06:00;40.70;;;20.13;;
3443;SDS011;1736;52.068;6.968;2022-12-16T02:08:29;36.50;;;19.37;;
3443;SDS011;1736;52.068;6.968;2022-12-16T02:11:00;40.57;;;19.87;;
3443;SDS011;1736;52.068;6.968;2022-12-16T02:13:36;44.13;;;20.67;;
3443;SDS011;1736;52.068;6.968;2022-12-16T02:16:14;38.80;;;19.53;;
3443;SDS011;1736;52.068;6.968;2022-12-16T02:18:51;45.50;;;20.87;;
3443;SDS011;1736;52.068;6.968;2022-12-16T02:21:30;40.00;;;19.37;;
3443;SDS011;1736;52.068;6.968;2022-12-16T02:27:32;40.17;;;19.57;;
3443;SDS011;1736;52.068;6.968;2022-12-16T02:30:26;33.70;;;17.90;;
3443;SDS011;1736;52.068;6.968;2022-12-16T02:33:05;40.50;;;20.20;;
3443;SDS011;1736;52.068;6.968;2022-12-16T02:35:47;41.57;;;19.33;;
3443;SDS011;1736;52.068;6.968;2022-12-16T02:38:20;41.73;;;18.80;;
3443;SDS011;1736;52.068;6.968;2022-12-16T02:40:54;38.40;;;18.40;;
3443;SDS011;1736;52.068;6.968;2022-12-16T02:43:29;35.13;;;19.27;;
3443;SDS011;1736;52.068;6.968;2022-12-16T02:46:11;42.00;;;20.17;;
3443;SDS011;1736;52.068;6.968;2022-12-16T02:48:38;36.17;;;18.30;;
3443;SDS011;1736;52.068;6.968;2022-12-16T02:51:04;35.67;;;18.10;;
3443;SDS011;1736;52.068;6.968;2022-12-16T02:53:32;34.97;;;18.57;;
3443;SDS011;1736;52.068;6.968;2022-12-16T02:56:05;42.70;;;19.47;;
3443;SDS011;1736;52.068;6.968;2022-12-16T02:58:43;40.53;;;19.70;;
3443;SDS011;1736;52.068;6.968;2022-12-16T03:01:18;41.67;;;20.73;;
3443;SDS011;1736;52.068;6.968;2022-12-16T03:03:53;41.40;;;19.83;;
3443;SDS011;1736;52.068;6.968;2022-12-16T03:06:25;36.40;;;19.20;;
3443;SDS011;1736;52.068;6.968;2022-12-16T03:08:56;35.40;;;19.13;;
3443;SDS011;1736;52.068;6.968;2022-12-16T03:11:26;37.37;;;19.17;;
3443;SDS011;1736;52.068;6.968;2022-12-16T03:13:55;43.33;;;19.00;;
3443;SDS011;1736;52.068;6.968;2022-12-16T03:16:25;39.37;;;19.40;;
3443;SDS011;1736;52.068;6.968;2022-12-16T03:18:55;45.37;;;20.60;;
3443;SDS011;1736;52.068;6.968;2022-12-16T03:21:27;41.13;;;20.20;;
3443;SDS011;1736;52.068;6.968;2022-12-16T03:23:58;37.87;;;19.73;;
3443;SDS011;1736;52.068;6.968;2022-12-16T03:26:28;36.47;;;18.63;;
3443;SDS011;1736;52.068;6.968;2022-12-16T03:28:59;38.30;;;19.43;;
3443;SDS011;1736;52.068;6.968;2022-12-16T03:31:33;46.97;;;19.50;;
3443;SDS011;1736;52.068;6.968;2022-12-16T03:34:06;44.37;;;21.43;;
3443;SDS011;1736;52.068;6.968;2022-12-16T03:36:40;35.87;;;19.30;;
3443;SDS011;1736;52.068;6.968;2022-12-16T03:39:10;41.77;;;21.67;;
3443;SDS011;1736;52.068;6.968;2022-12-16T03:41:38;38.83;;;20.20;;
3443;SDS011;1736;52.068;6.968;2022-12-16T03:44:08;42.47;;;20.90;;
3443;SDS011;1736;52.068;6.968;2022-12-16T03:46:38;44.03;;;20.57;;
3443;SDS011;1736;52.068;6.968;2022-12-16T03:49:04;50.00;;;22.30;;
3443;SDS011;1736;52.068;6.968;2022-12-16T03:51:31;44.70;;;21.10;;
3443;SDS011;1736;52.068;6.968;2022-12-16T03:53:58;37.50;;;18.90;;
3443;SDS011;1736;52.068;6.968;2022-12-16T03:56:24;43.83;;;20.73;;
3443;SDS011;1736;52.068;6.968;2022-12-16T03:58:51;41.20;;;20.83;;
3443;SDS011;1736;52.068;6.968;2022-12-16T04:01:18;45.57;;;21.87;;
3443;SDS011;1736;52.068;6.968;2022-12-16T04:03:46;42.40;;;20.33;;
3443;SDS011;1736;52.068;6.968;2022-12-16T04:06:12;42.87;;;22.30;;
3443;SDS011;1736;52.068;6.968;2022-12-16T04:08:42;44.07;;;21.90;;
3443;SDS011;1736;52.068;6.968;2022-12-16T04:11:09;43.33;;;20.13;;
3443;SDS011;1736;52.068;6.968;2022-12-16T04:13:53;44.87;;;21.47;;
3443;SDS011;1736;52.068;6.968;2022-12-16T04:16:38;36.63;;;19.77;;
3443;SDS011;1736;52.068;6.968;2022-12-16T04:19:24;44.17;;;21.80;;
3443;SDS011;1736;52.068;6.968;2022-12-16T04:22:12;45.90;;;21.80;;
3443;SDS011;1736;52.068;6.968;2022-12-16T04:25:00;45.50;;;21.77;;
3443;SDS011;1736;52.068;6.968;2022-12-16T04:27:33;43.60;;;21.90;;
3443;SDS011;1736;52.068;6.968;2022-12-16T04:29:59;43.67;;;21.63;;
3443;SDS011;1736;52.068;6.968;2022-12-16T04:32:44;51.57;;;22.10;;
3443;SDS011;1736;52.068;6.968;2022-12-16T04:35:30;43.90;;;21.00;;
3443;SDS011;1736;52.068;6.968;2022-12-16T04:38:14;41.53;;;21.30;;
3443;SDS011;1736;52.068;6.968;2022-12-16T04:40:58;39.77;;;20.97;;
3443;SDS011;1736;52.068;6.968;2022-12-16T04:43:42;45.57;;;22.13;;
3443;SDS011;1736;52.068;6.968;2022-12-16T04:46:26;46.13;;;23.00;;
3443;SDS011;1736;52.068;6.968;2022-12-16T04:49:10;40.83;;;21.00;;
3443;SDS011;1736;52.068;6.968;2022-12-16T04:51:55;48.80;;;22.17;;
3443;SDS011;1736;52.068;6.968;2022-12-16T04:54:39;42.60;;;22.50;;
3443;SDS011;1736;52.068;6.968;2022-12-16T04:57:24;43.10;;;21.80;;
3443;SDS011;1736;52.068;6.968;2022-12-16T05:00:08;46.03;;;22.67;;
3443;SDS011;1736;52.068;6.968;2022-12-16T05:02:53;39.20;;;20.70;;
3443;SDS011;1736;52.068;6.968;2022-12-16T05:05:36;43.17;;;21.73;;
3443;SDS011;1736;52.068;6.968;2022-12-16T05:08:22;48.40;;;22.97;;
3443;SDS011;1736;52.068;6.968;2022-12-16T05:11:06;44.57;;;21.47;;
3443;SDS011;1736;52.068;6.968;2022-12-16T05:13:50;43.20;;;22.60;;
3443;SDS011;1736;52.068;6.968;2022-12-16T05:16:34;42.87;;;22.50;;
3443;SDS011;1736;52.068;6.968;2022-12-16T05:19:19;42.77;;;20.67;;
3443;SDS011;1736;52.068;6.968;2022-12-16T05:22:03;46.53;;;22.13;;
3443;SDS011;1736;52.068;6.968;2022-12-16T05:24:48;47.27;;;22.40;;
3443;SDS011;1736;52.068;6.968;2022-12-16T05:27:32;49.50;;;22.27;;
3443;SDS011;1736;52.068;6.968;2022-12-16T05:30:22;45.03;;;22.50;;
3443;SDS011;1736;52.068;6.968;2022-12-16T05:33:06;43.53;;;22.47;;
3443;SDS011;1736;52.068;6.968;2022-12-16T05:35:50;43.67;;;21.50;;
3443;SDS011;1736;52.068;6.968;2022-12-16T05:38:35;47.77;;;23.67;;
3443;SDS011;1736;52.068;6.968;2022-12-16T05:41:20;45.40;;;21.80;;
3443;SDS011;1736;52.068;6.968;2022-12-16T05:44:04;40.77;;;22.27;;
3443;SDS011;1736;52.068;6.968;2022-12-16T05:46:48;44.97;;;22.50;;
3443;SDS011;1736;52.068;6.968;2022-12-16T05:49:32;44.93;;;20.93;;
3443;SDS011;1736;52.068;6.968;2022-12-16T05:52:17;45.40;;;21.10;;
3443;SDS011;1736;52.068;6.968;2022-12-16T05:55:01;44.77;;;20.83;;
3443;SDS011;1736;52.068;6.968;2022-12-16T05:57:48;45.17;;;22.83;;
3443;SDS011;1736;52.068;6.968;2022-12-16T06:00:33;61.20;;;24.53;;
3443;SDS011;1736;52.068;6.968;2022-12-16T06:03:17;54.80;;;22.37;;
3443;SDS011;1736;52.068;6.968;2022-12-16T06:06:01;43.43;;;22.50;;
3443;SDS011;1736;52.068;6.968;2022-12-16T06:08:46;45.20;;;21.93;;
3443;SDS011;1736;52.068;6.968;2022-12-16T06:11:30;45.17;;;21.90;;
3443;SDS011;1736;52.068;6.968;2022-12-16T06:14:15;44.53;;;21.90;;
3443;SDS011;1736;52.068;6.968;2022-12-16T06:16:59;47.97;;;22.97;;
3443;SDS011;1736;52.068;6.968;2022-12-16T06:19:44;50.30;;;23.20;;
3443;SDS011;1736;52.068;6.968;2022-12-16T06:22:28;42.83;;;21.43;;
3443;SDS011;1736;52.068;6.968;2022-12-16T06:25:12;45.10;;;21.90;;
3443;SDS011;1736;52.068;6.968;2022-12-16T06:27:56;52.77;;;23.13;;
3443;SDS011;1736;52.068;6.968;2022-12-16T06:30:42;55.30;;;23.50;;
3443;SDS011;1736;52.068;6.968;2022-12-16T06:33:26;42.60;;;21.20;;
3443;SDS011;1736;52.068;6.968;2022-12-16T06:36:10;51.13;;;20.47;;
3443;SDS011;1736;52.068;6.968;2022-12-16T06:39:06;47.73;;;22.03;;
3443;SDS011;1736;52.068;6.968;2022-12-16T06:41:50;42.73;;;21.83;;
3443;SDS011;1736;52.068;6.968;2022-12-16T06:44:34;47.83;;;22.83;;
3443;SDS011;1736;52.068;6.968;2022-12-16T06:47:19;47.43;;;23.57;;
3443;SDS011;1736;52.068;6.968;2022-12-16T06:50:04;47.97;;;22.27;;
3443;SDS011;1736;52.068;6.968;2022-12-16T06:52:48;48.83;;;24.23;;
3443;SDS011;1736;52.068;6.968;2022-12-16T06:55:32;45.13;;;23.47;;
3443;SDS011;1736;52.068;6.968;2022-12-16T06:58:16;51.23;;;22.77;;
3443;SDS011;1736;52.068;6.968;2022-12-16T07:01:00;48.00;;;21.50;;
3443;SDS011;1736;52.068;6.968;2022-12-16T07:03:46;43.03;;;23.17;;
3443;SDS011;1736;52.068;6.968;2022-12-16T07:06:30;49.00;;;24.20;;
3443;SDS011;1736;52.068;6.968;2022-12-16T07:09:14;46.50;;;21.73;;
3443;SDS011;1736;52.068;6.968;2022-12-16T07:11:59;40.50;;;20.57;;
3443;SDS011;1736;52.068;6.968;2022-12-16T07:14:43;45.50;;;22.70;;
3443;SDS011;1736;52.068;6.968;2022-12-16T07:17:27;50.03;;;23.70;;
3443;SDS011;1736;52.068;6.968;2022-12-16T07:20:13;52.73;;;24.70;;
3443;SDS011;1736;52.068;6.968;2022-12-16T07:22:56;46.83;;;22.13;;
3443;SDS011;1736;52.068;6.968;2022-12-16T07:25:41;45.70;;;22.03;;
3443;SDS011;1736;52.068;6.968;2022-12-16T07:28:25;46.17;;;22.20;;
3443;SDS011;1736;52.068;6.968;2022-12-16T07:31:18;48.87;;;22.87;;
3443;SDS011;1736;52.068;6.968;2022-12-16T07:34:02;48.00;;;24.33;;
3443;SDS011;1736;52.068;6.968;2022-12-16T07:36:48;49.90;;;22.90;;
3443;SDS011;1736;52.068;6.968;2022-12-16T07:39:32;57.47;;;25.67;;
3443;SDS011;1736;52.068;6.968;2022-12-16T07:42:16;55.33;;;23.90;;
3443;SDS011;1736;52.068;6.968;2022-12-16T07:45:00;45.57;;;21.83;;
3443;SDS011;1736;52.068;6.968;2022-12-16T07:47:47;45.40;;;23.03;;
3443;SDS011;1736;52.068;6.968;2022-12-16T07:50:32;49.33;;;24.00;;
3443;SDS011;1736;52.068;6.968;2022-12-16T07:53:18;52.27;;;25.23;;
3443;SDS011;1736;52.068;6.968;2022-12-16T07:56:02;45.80;;;22.37;;
3443;SDS011;1736;52.068;6.968;2022-12-16T07:58:46;50.23;;;25.23;;
3443;SDS011;1736;52.068;6.968;2022-12-16T08:01:31;54.83;;;25.47;;
3443;SDS011;1736;52.068;6.968;2022-12-16T08:04:15;47.10;;;24.10;;
3443;SDS011;1736;52.068;6.968;2022-12-16T08:06:59;54.63;;;24.77;;
3443;SDS011;1736;52.068;6.968;2022-12-16T08:09:45;44.17;;;23.77;;
3443;SDS011;1736;52.068;6.968;2022-12-16T08:12:29;47.93;;;23.40;;
3443;SDS011;1736;52.068;6.968;2022-12-16T08:15:13;46.30;;;22.97;;
3443;SDS011;1736;52.068;6.968;2022-12-16T08:17:57;51.00;;;24.20;;
3443;SDS011;1736;52.068;6.968;2022-12-16T08:20:41;47.77;;;23.50;;
3443;SDS011;1736;52.068;6.968;2022-12-16T08:23:25;47.47;;;24.00;;
3443;SDS011;1736;52.068;6.968;2022-12-16T08:26:11;47.50;;;23.97;;
3443;SDS011;1736;52.068;6.968;2022-12-16T08:28:55;43.70;;;23.60;;
3443;SDS011;1736;52.068;6.968;2022-12-16T08:31:39;50.97;;;25.13;;
3443;SDS011;1736;52.068;6.968;2022-12-16T08:34:23;48.77;;;23.67;;
3443;SDS011;1736;52.068;6.968;2022-12-16T08:37:08;43.23;;;22.57;;
3443;SDS011;1736;52.068;6.968;2022-12-16T08:39:51;49.27;;;24.93;;
3443;SDS011;1736;52.068;6.968;2022-12-16T08:42:36;47.93;;;24.80;;
3443;SDS011;1736;52.068;6.968;2022-12-16T08:45:21;53.00;;;25.33;;
3443;SDS011;1736;52.068;6.968;2022-12-16T08:48:05;48.57;;;24.97;;
3443;SDS011;1736;52.068;6.968;2022-12-16T08:50:49;50.57;;;25.40;;
3443;SDS011;1736;52.068;6.968;2022-12-16T08:53:33;48.67;;;24.30;;
3443;SDS011;1736;52.068;6.968;2022-12-16T08:56:17;50.10;;;23.80;;
3443;SDS011;1736;52.068;6.968;2022-12-16T08:59:03;47.33;;;22.77;;
3443;SDS011;1736;52.068;6.968;2022-12-16T09:01:47;49.30;;;25.17;;
3443;SDS011;1736;52.068;6.968;2022-12-16T09:04:31;44.50;;;23.30;;
3443;SDS011;1736;52.068;6.968;2022-12-16T09:07:16;43.37;;;21.67;;
3443;SDS011;1736;52.068;6.968;2022-12-16T09:10:00;47.47;;;23.17;;
3443;SDS011;1736;52.068;6.968;2022-12-16T09:12:44;47.27;;;23.17;;
3443;SDS011;1736;52.068;6.968;2022-12-16T09:15:30;48.87;;;24.83;;
3443;SDS011;1736;52.068;6.968;2022-12-16T09:18:14;49.60;;;25.40;;
3443;SDS011;1736;52.068;6.968;2022-12-16T09:20:58;49.90;;;26.10;;
3443;SDS011;1736;52.068;6.968;2022-12-16T09:23:43;48.63;;;23.70;;
3443;SDS011;1736;52.068;6.968;2022-12-16T09:26:27;65.47;;;37.50;;
3443;SDS011;1736;52.068;6.968;2022-12-16T09:29:11;48.50;;;26.03;;
3443;SDS011;1736;52.068;6.968;2022-12-16T09:31:56;45.60;;;23.73;;
3443;SDS011;1736;52.068;6.968;2022-12-16T09:34:49;54.10;;;28.43;;
3443;SDS011;1736;52.068;6.968;2022-12-16T09:37:33;53.80;;;26.83;;
3443;SDS011;1736;52.068;6.968;2022-12-16T09:40:17;45.27;;;24.70;;
3443;SDS011;1736;52.068;6.968;2022-12-16T09:43:05;50.73;;;25.43;;
3443;SDS011;1736;52.068;6.968;2022-12-16T09:46:06;55.87;;;26.83;;
3443;SDS011;1736;52.068;6.968;2022-12-16T09:48:58;52.63;;;25.53;;
3443;SDS011;1736;52.068;6.968;2022-12-16T09:51:54;55.67;;;28.70;;
3443;SDS011;1736;52.068;6.968;2022-12-16T09:54:40;54.20;;;26.90;;
3443;SDS011;1736;52.068;6.968;2022-12-16T09:57:28;54.23;;;28.53;;
3443;SDS011;1736;52.068;6.968;2022-12-16T10:00:16;58.13;;;28.80;;
3443;SDS011;1736;52.068;6.968;2022-12-16T10:03:04;47.93;;;25.30;;
3443;SDS011;1736;52.068;6.968;2022-12-16T10:05:59;53.00;;;28.57;;
3443;SDS011;1736;52.068;6.968;2022-12-16T10:08:48;56.20;;;30.63;;
3443;SDS011;1736;52.068;6.968;2022-12-16T10:11:55;50.70;;;25.90;;
3443;SDS011;1736;52.068;6.968;2022-12-16T10:14:46;50.17;;;23.87;;
3443;SDS011;1736;52.068;6.968;2022-12-16T10:17:34;52.27;;;27.20;;
3443;SDS011;1736;52.068;6.968;2022-12-16T10:20:26;44.53;;;25.43;;
3443;SDS011;1736;52.068;6.968;2022-12-16T10:23:21;49.40;;;25.20;;
3443;SDS011;1736;52.068;6.968;2022-12-16T10:26:13;49.67;;;24.33;;
3443;SDS011;1736;52.068;6.968;2022-12-16T10:29:11;49.27;;;25.60;;
3443;SDS011;1736;52.068;6.968;2022-12-16T10:32:01;46.33;;;24.87;;
3443;SDS011;1736;52.068;6.968;2022-12-16T10:34:49;47.60;;;25.73;;
3443;SDS011;1736;52.068;6.968;2022-12-16T10:37:34;48.57;;;23.80;;
3443;SDS011;1736;52.068;6.968;2022-12-16T10:40:36;45.03;;;23.07;;
3443;SDS011;1736;52.068;6.968;2022-12-16T10:43:26;48.80;;;25.00;;
3443;SDS011;1736;52.068;6.968;2022-12-16T10:46:18;47.00;;;25.60;;
3443;SDS011;1736;52.068;6.968;2022-12-16T10:49:07;49.53;;;25.73;;
3443;SDS011;1736;52.068;6.968;2022-12-16T10:51:56;52.97;;;25.83;;
3443;SDS011;1736;52.068;6.968;2022-12-16T10:54:55;46.93;;;23.40;;
3443;SDS011;1736;52.068;6.968;2022-12-16T10:57:47;52.47;;;27.50;;
3443;SDS011;1736;52.068;6.968;2022-12-16T11:00:42;53.23;;;26.27;;
3443;SDS011;1736;52.068;6.968;2022-12-16T11:03:28;48.07;;;25.10;;
3443;SDS011;1736;52.068;6.968;2022-12-16T11:06:15;51.90;;;26.60;;
3443;SDS011;1736;52.068;6.968;2022-12-16T11:09:13;45.67;;;24.97;;
3443;SDS011;1736;52.068;6.968;2022-12-16T11:12:18;43.50;;;24.27;;
3443;SDS011;1736;52.068;6.968;2022-12-16T11:15:19;47.47;;;24.33;;
3443;SDS011;1736;52.068;6.968;2022-12-16T11:18:05;48.93;;;26.23;;
3443;SDS011;1736;52.068;6.968;2022-12-16T11:21:03;47.07;;;25.77;;
3443;SDS011;1736;52.068;6.968;2022-12-16T11:23:57;47.90;;;26.10;;
3443;SDS011;1736;52.068;6.968;2022-12-16T11:26:51;41.00;;;23.10;;
3443;SDS011;1736;52.068;6.968;2022-12-16T11:29:47;50.70;;;24.97;;
3443;SDS011;1736;52.068;6.968;2022-12-16T11:32:41;54.40;;;28.03;;
3443;SDS011;1736;52.068;6.968;2022-12-16T11:35:29;63.23;;;31.67;;
3443;SDS011;1736;52.068;6.968;2022-12-16T11:38:17;58.20;;;30.00;;
3443;SDS011;1736;52.068;6.968;2022-12-16T11:41:06;54.37;;;27.30;;
3443;SDS011;1736;52.068;6.968;2022-12-16T11:43:52;52.93;;;27.43;;
3443;SDS011;1736;52.068;6.968;2022-12-16T11:46:38;53.47;;;27.47;;
3443;SDS011;1736;52.068;6.968;2022-12-16T11:49:26;46.70;;;26.93;;
3443;SDS011;1736;52.068;6.968;2022-12-16T11:52:13;66.60;;;27.20;;
3443;SDS011;1736;52.068;6.968;2022-12-16T11:55:01;48.57;;;26.40;;
3443;SDS011;1736;52.068;6.968;2022-12-16T11:57:57;54.40;;;27.43;;
3443;SDS011;1736;52.068;6.968;2022-12-16T12:00:48;57.43;;;25.83;;
3443;SDS011;1736;52.068;6.968;2022-12-16T12:03:41;51.80;;;26.20;;
3443;SDS011;1736;52.068;6.968;2022-12-16T12:06:30;56.23;;;27.60;;
3443;SDS011;1736;52.068;6.968;2022-12-16T12:09:20;55.23;;;26.47;;
3443;SDS011;1736;52.068;6.968;2022-12-16T12:12:09;57.77;;;27.03;;
3443;SDS011;1736;52.068;6.968;2022-12-16T12:15:00;67.27;;;29.07;;
3443;SDS011;1736;52.068;6.968;2022-12-16T12:18:00;58.77;;;27.60;;
3443;SDS011;1736;52.068;6.968;2022-12-16T12:20:49;61.83;;;27.73;;
3443;SDS011;1736;52.068;6.968;2022-12-16T12:23:44;56.53;;;27.20;;
3443;SDS011;1736;52.068;6.968;2022-12-16T12:26:36;65.27;;;30.00;;
3443;SDS011;1736;52.068;6.968;2022-12-16T12:29:34;59.77;;;29.47;;
3443;SDS011;1736;52.068;6.968;2022-12-16T12:32:27;57.97;;;27.13;;
3443;SDS011;1736;52.068;6.968;2022-12-16T12:35:31;63.60;;;29.47;;
3443;SDS011;1736;52.068;6.968;2022-12-16T12:38:30;66.03;;;30.00;;
3443;SDS011;1736;52.068;6.968;2022-12-16T12:41:24;66.10;;;28.23;;
3443;SDS011;1736;52.068;6.968;2022-12-16T12:44:12;53.20;;;27.40;;
3443;SDS011;1736;52.068;6.968;2022-12-16T12:47:05;70.53;;;32.67;;
3443;SDS011;1736;52.068;6.968;2022-12-16T12:49:54;68.93;;;30.93;;
3443;SDS011;1736;52.068;6.968;2022-12-16T12:52:55;70.93;;;29.53;;
3443;SDS011;1736;52.068;6.968;2022-12-16T12:55:50;65.50;;;29.67;;
3443;SDS011;1736;52.068;6.968;2022-12-16T12:58:41;64.87;;;29.47;;
3443;SDS011;1736;52.068;6.968;2022-12-16T13:01:27;78.10;;;31.93;;
3443;SDS011;1736;52.068;6.968;2022-12-16T13:04:15;66.47;;;30.00;;
3443;SDS011;1736;52.068;6.968;2022-12-16T13:07:03;70.10;;;29.70;;
3443;SDS011;1736;52.068;6.968;2022-12-16T13:16:54;68.10;;;30.40;;
3443;SDS011;1736;52.068;6.968;2022-12-16T13:19:51;62.60;;;30.77;;
3443;SDS011;1736;52.068;6.968;2022-12-16T13:22:36;66.23;;;30.57;;
3443;SDS011;1736;52.068;6.968;2022-12-16T13:25:31;60.13;;;29.40;;
3443;SDS011;1736;52.068;6.968;2022-12-16T13:28:22;74.47;;;31.23;;
3443;SDS011;1736;52.068;6.968;2022-12-16T13:31:08;62.70;;;29.40;;
3443;SDS011;1736;52.068;6.968;2022-12-16T13:33:54;61.10;;;29.83;;
3443;SDS011;1736;52.068;6.968;2022-12-16T13:36:42;61.90;;;31.43;;
3443;SDS011;1736;52.068;6.968;2022-12-16T13:39:28;62.57;;;28.67;;
3443;SDS011;1736;52.068;6.968;2022-12-16T13:45:43;61.07;;;31.03;;
3443;SDS011;1736;52.068;6.968;2022-12-16T13:48:55;56.67;;;29.80;;
3443;SDS011;1736;52.068;6.968;2022-12-16T13:52:18;58.20;;;29.77;;
3443;SDS011;1736;52.068;6.968;2022-12-16T13:55:13;60.93;;;29.67;;
3443;SDS011;1736;52.068;6.968;2022-12-16T13:58:03;66.67;;;32.33;;
3443;SDS011;1736;52.068;6.968;2022-12-16T14:00:56;71.73;;;31.20;;
3443;SDS011;1736;52.068;6.968;2022-12-16T14:03:48;67.47;;;29.97;;
3443;SDS011;1736;52.068;6.968;2022-12-16T14:06:34;62.60;;;29.50;;
3443;SDS011;1736;52.068;6.968;2022-12-16T14:09:23;66.80;;;31.27;;
3443;SDS011;1736;52.068;6.968;2022-12-16T14:12:14;63.03;;;29.93;;
3443;SDS011;1736;52.068;6.968;2022-12-16T14:15:04;63.03;;;29.77;;
3443;SDS011;1736;52.068;6.968;2022-12-16T14:17:57;56.37;;;29.60;;
3443;SDS011;1736;52.068;6.968;2022-12-16T14:20:46;66.13;;;31.40;;
3443;SDS011;1736;52.068;6.968;2022-12-16T14:23:33;68.43;;;36.30;;
3443;SDS011;1736;52.068;6.968;2022-12-16T14:26:21;74.47;;;35.70;;
3443;SDS011;1736;52.068;6.968;2022-12-16T14:29:11;74.03;;;34.07;;
3443;SDS011;1736;52.068;6.968;2022-12-16T14:32:01;85.07;;;35.00;;
3443;SDS011;1736;52.068;6.968;2022-12-16T14:35:03;73.87;;;35.43;;
3443;SDS011;1736;52.068;6.968;2022-12-16T14:37:54;78.93;;;35.63;;
3443;SDS011;1736;52.068;6.968;2022-12-16T14:40:38;67.93;;;30.77;;
3443;SDS011;1736;52.068;6.968;2022-12-16T14:43:23;67.70;;;33.17;;
3443;SDS011;1736;52.068;6.968;2022-12-16T14:46:15;67.70;;;33.33;;
3443;SDS011;1736;52.068;6.968;2022-12-16T14:49:14;81.37;;;35.27;;
3443;SDS011;1736;52.068;6.968;2022-12-16T14:52:09;80.40;;;35.60;;
3443;SDS011;1736;52.068;6.968;2022-12-16T14:54:58;72.87;;;36.30;;
3443;SDS011;1736;52.068;6.968;2022-12-16T14:58:00;68.43;;;33.10;;
3443;SDS011;1736;52.068;6.968;2022-12-16T15:00:45;67.17;;;31.57;;
3443;SDS011;1736;52.068;6.968;2022-12-16T15:03:31;71.73;;;33.93;;
3443;SDS011;1736;52.068;6.968;2022-12-16T15:06:21;72.63;;;34.00;;
3443;SDS011;1736;52.068;6.968;2022-12-16T15:09:11;72.80;;;33.70;;
3443;SDS011;1736;52.068;6.968;2022-12-16T15:12:01;76.00;;;33.03;;
3443;SDS011;1736;52.068;6.968;2022-12-16T15:14:45;74.70;;;34.67;;
3443;SDS011;1736;52.068;6.968;2022-12-16T15:17:42;80.03;;;35.33;;
3443;SDS011;1736;52.068;6.968;2022-12-16T15:20:30;77.67;;;36.53;;
3443;SDS011;1736;52.068;6.968;2022-12-16T15:23:18;94.27;;;42.30;;
3443;SDS011;1736;52.068;6.968;2022-12-16T15:26:08;95.97;;;37.43;;
3443;SDS011;1736;52.068;6.968;2022-12-16T15:28:52;81.40;;;34.67;;
3443;SDS011;1736;52.068;6.968;2022-12-16T15:31:37;79.53;;;36.40;;
3443;SDS011;1736;52.068;6.968;2022-12-16T15:34:24;84.97;;;36.10;;
3443;SDS011;1736;52.068;6.968;2022-12-16T15:37:14;75.60;;;35.80;;
3443;SDS011;1736;52.068;6.968;2022-12-16T15:40:00;86.90;;;37.53;;
3443;SDS011;1736;52.068;6.968;2022-12-16T15:42:49;81.13;;;35.07;;
3443;SDS011;1736;52.068;6.968;2022-12-16T15:45:34;86.60;;;35.27;;
3443;SDS011;1736;52.068;6.968;2022-12-16T15:48:22;74.53;;;34.13;;
3443;SDS011;1736;52.068;6.968;2022-12-16T15:51:22;81.93;;;34.37;;
3443;SDS011;1736;52.068;6.968;2022-12-16T15:54:12;78.00;;;33.57;;
3443;SDS011;1736;52.068;6.968;2022-12-16T15:56:58;81.03;;;35.23;;
3443;SDS011;1736;52.068;6.968;2022-12-16T15:59:53;78.53;;;32.97;;
3443;SDS011;1736;52.068;6.968;2022-12-16T16:02:44;76.40;;;33.63;;
3443;SDS011;1736;52.068;6.968;2022-12-16T16:05:30;82.50;;;35.63;;
3443;SDS011;1736;52.068;6.968;2022-12-16T16:08:14;83.03;;;35.73;;
3443;SDS011;1736;52.068;6.968;2022-12-16T16:10:58;96.57;;;37.60;;
3443;SDS011;1736;52.068;6.968;2022-12-16T16:13:42;82.50;;;35.30;;
3443;SDS011;1736;52.068;6.968;2022-12-16T16:16:28;87.37;;;36.50;;
3443;SDS011;1736;52.068;6.968;2022-12-16T16:19:13;99.23;;;39.13;;
3443;SDS011;1736;52.068;6.968;2022-12-16T16:22:03;162.33;;;61.40;;
3443;SDS011;1736;52.068;6.968;2022-12-16T16:24:47;126.27;;;44.90;;
3443;SDS011;1736;52.068;6.968;2022-12-16T16:27:33;100.83;;;38.47;;
3443;SDS011;1736;52.068;6.968;2022-12-16T16:30:17;91.73;;;37.70;;
3443;SDS011;1736;52.068;6.968;2022-12-16T16:33:03;96.43;;;36.67;;
3443;SDS011;1736;52.068;6.968;2022-12-16T16:35:50;90.07;;;36.70;;